Time;durP1;ratioP1;P1;durP2;ratioP2;P2;SDS_P1;SDS_P2;PMS_P1;PMS_P2;Temp;Humidity;BMP_temperature;BMP_pressure;BME280_temperature;BME280_humidity;BME280_pressure;Samples;Min_cycle;Max_cycle;Signal;HPM_P1;HPM_P2
2022/12/29 00:02:01;;;;;;;2.08;1.33;;;10.00;99.90;;;;;;5035182;28;20036;-69
2022/12/29 00:04:27;;;;;;;2.83;1.50;;;10.10;99.90;;;;;;5034868;28;20025;-69
2022/12/29 00:06:53;;;;;;;4.78;1.92;;;10.20;99.90;;;;;;5034627;28;20071;-69
2022/12/29 00:09:19;;;;;;;2.42;1.38;;;10.20;99.90;;;;;;5035075;28;20017;-69
2022/12/29 00:11:45;;;;;;;2.78;1.40;;;10.20;99.90;;;;;;5034748;28;20547;-69
2022/12/29 00:16:56;;;;;;;5.38;1.55;;;10.20;99.90;;;;;;5052794;28;20035;-68
2022/12/29 00:36:56;;;;;;;3.30;1.67;;;10.30;99.90;;;;;;5011018;28;20033;-69
2022/12/29 00:44:51;;;;;;;1.77;1.00;;;10.50;99.90;;;;;;5010910;28;20084;-69
2022/12/29 00:47:29;;;;;;;2.58;1.08;;;10.60;99.90;;;;;;4994344;28;20038;-69
2022/12/29 00:49:54;;;;;;;3.03;1.05;;;10.60;99.90;;;;;;4994354;28;20026;-70
2022/12/29 00:52:20;;;;;;;3.95;1.08;;;10.70;99.90;;;;;;5010739;28;20037;-69
2022/12/29 00:54:45;;;;;;;3.45;1.40;;;10.80;99.90;;;;;;5012653;28;20026;-69
2022/12/29 00:57:12;;;;;;;1.10;0.70;;;10.80;99.90;;;;;;5014196;28;20188;-69
2022/12/29 00:59:39;;;;;;;3.55;1.08;;;10.80;99.90;;;;;;5012990;28;20499;-69
2022/12/29 01:02:06;;;;;;;2.17;1.27;;;10.90;99.90;;;;;;5036007;28;20036;-69
2022/12/29 01:04:31;;;;;;;1.30;1.00;;;10.80;99.90;;;;;;5018322;28;20089;-69
2022/12/29 01:06:57;;;;;;;3.20;1.30;;;10.80;99.90;;;;;;5034007;28;20116;-69
2022/12/29 01:12:55;;;;;;;2.72;1.30;;;11.00;99.90;;;;;;5055892;28;20028;-69
2022/12/29 01:15:30;;;;;;;1.52;1.20;;;11.00;99.90;;;;;;5055860;28;20078;-69
2022/12/29 01:18:03;;;;;;;1.00;0.90;;;10.90;99.90;;;;;;5055406;28;20041;-69
2022/12/29 01:20:51;;;;;;;1.95;0.80;;;11.00;99.90;;;;;;5037603;28;20126;-69
2022/12/29 01:23:22;;;;;;;1.30;0.90;;;11.00;99.90;;;;;;5055799;28;20021;-69
2022/12/29 01:25:53;;;;;;;1.13;0.90;;;11.00;99.90;;;;;;5037536;28;20032;-69
2022/12/29 01:28:27;;;;;;;7.70;1.15;;;11.00;99.90;;;;;;5037216;28;20025;-69
2022/12/29 01:31:02;;;;;;;3.28;0.98;;;11.00;99.90;;;;;;5037539;28;20037;-69
2022/12/29 01:33:36;;;;;;;2.15;0.82;;;11.00;99.90;;;;;;5055278;28;20021;-69
2022/12/29 01:36:12;;;;;;;2.10;0.98;;;11.00;99.90;;;;;;5055232;28;20096;-69
2022/12/29 01:38:43;;;;;;;3.72;1.00;;;11.00;99.90;;;;;;5055172;28;20025;-69
2022/12/29 01:41:19;;;;;;;4.73;1.00;;;11.00;99.90;;;;;;5055239;28;20048;-69
2022/12/29 01:44:03;;;;;;;2.60;1.05;;;11.00;99.90;;;;;;5034628;28;20259;-69
2022/12/29 01:46:48;;;;;;;1.75;1.00;;;11.00;99.90;;;;;;5050908;28;20025;-69
2022/12/29 01:49:26;;;;;;;3.40;1.08;;;11.00;99.90;;;;;;5039876;28;20468;-69
2022/12/29 01:52:10;;;;;;;1.23;0.82;;;11.00;99.90;;;;;;5036812;28;20483;-69
2022/12/29 01:54:55;;;;;;;4.85;1.45;;;11.00;99.90;;;;;;5054815;28;20028;-69
2022/12/29 01:57:34;;;;;;;0.82;0.80;;;11.10;99.90;;;;;;5036638;28;20033;-69
2022/12/29 02:00:14;;;;;;;2.08;1.08;;;11.10;99.90;;;;;;5021041;28;20033;-69
2022/12/29 02:02:54;;;;;;;2.42;1.00;;;11.00;99.90;;;;;;5054429;28;20369;-69
2022/12/29 02:05:40;;;;;;;3.25;0.98;;;11.00;99.90;;;;;;5022279;28;20040;-69
2022/12/29 02:08:12;;;;;;;1.33;0.85;;;11.00;99.90;;;;;;5010783;28;20037;-69
2022/12/29 02:10:50;;;;;;;4.13;1.40;;;11.00;99.90;;;;;;5036762;28;20075;-69
2022/12/29 02:13:31;;;;;;;3.63;0.90;;;11.10;99.90;;;;;;5036919;28;20365;-69
2022/12/29 02:16:46;;;;;;;0.83;0.70;;;11.10;99.90;;;;;;5036909;28;20041;-69
2022/12/29 02:19:34;;;;;;;1.13;0.75;;;11.10;99.90;;;;;;5036046;28;20032;-69
2022/12/29 02:22:19;;;;;;;0.65;0.52;;;11.10;99.90;;;;;;5053910;28;20029;-69
2022/12/29 02:25:20;;;;;;;1.10;0.73;;;11.10;99.90;;;;;;5036412;28;20096;-69
2022/12/29 02:28:09;;;;;;;4.28;0.73;;;11.10;99.90;;;;;;5053748;28;20033;-69
2022/12/29 02:30:44;;;;;;;1.77;0.70;;;11.10;99.90;;;;;;5054290;28;20024;-69
2022/12/29 02:33:43;;;;;;;2.03;0.80;;;11.10;99.90;;;;;;5054078;28;20025;-69
2022/12/29 02:36:22;;;;;;;0.70;0.70;;;11.10;99.90;;;;;;5030357;28;20022;-69
2022/12/29 02:39:12;;;;;;;0.77;0.55;;;11.10;99.90;;;;;;5041094;28;20017;-69
2022/12/29 02:42:17;;;;;;;0.98;0.80;;;11.10;99.90;;;;;;5035925;28;20025;-69
2022/12/29 02:44:57;;;;;;;1.35;0.55;;;11.20;99.90;;;;;;5047604;28;20017;-69
2022/12/29 02:47:53;;;;;;;0.93;0.60;;;11.20;99.90;;;;;;5035973;28;20111;-69
2022/12/29 02:50:50;;;;;;;0.77;0.60;;;11.30;99.90;;;;;;5034916;28;20029;-69
2022/12/29 02:56:16;;;;;;;1.65;0.63;;;11.20;99.90;;;;;;5053938;28;20035;-69
2022/12/29 02:58:53;;;;;;;2.47;0.50;;;11.20;99.90;;;;;;5035910;28;20025;-69
2022/12/29 03:04:55;;;;;;;1.52;0.80;;;11.30;99.90;;;;;;5033957;28;20032;-69
2022/12/29 03:07:45;;;;;;;0.85;0.55;;;11.30;99.90;;;;;;5031580;28;20143;-69
2022/12/29 03:10:41;;;;;;;0.68;0.55;;;11.30;99.90;;;;;;5035313;28;20037;-69
2022/12/29 03:16:59;;;;;;;2.00;0.52;;;11.30;99.90;;;;;;5034479;28;20096;-69
2022/12/29 03:19:52;;;;;;;0.88;0.73;;;11.30;99.90;;;;;;5040519;28;20029;-69
2022/12/29 03:22:37;;;;;;;0.60;0.50;;;11.40;99.90;;;;;;5035290;28;20032;-69
2022/12/29 03:25:19;;;;;;;0.70;0.45;;;11.40;99.90;;;;;;5034840;28;20483;-69
2022/12/29 03:28:01;;;;;;;1.77;0.82;;;11.40;99.90;;;;;;5052750;28;20029;-70
2022/12/29 03:30:44;;;;;;;1.85;0.50;;;11.40;99.90;;;;;;5035191;28;20043;-69
2022/12/29 03:33:20;;;;;;;1.02;0.60;;;11.30;99.90;;;;;;5052907;28;20025;-69
2022/12/29 03:35:56;;;;;;;0.63;0.60;;;11.30;99.90;;;;;;5034826;28;20021;-69
2022/12/29 03:38:33;;;;;;;0.73;0.73;;;11.30;99.90;;;;;;5052982;28;20418;-69
2022/12/29 03:41:11;;;;;;;1.58;0.60;;;11.30;99.90;;;;;;5035146;28;20446;-69
2022/12/29 03:43:43;;;;;;;1.20;0.65;;;11.30;99.90;;;;;;5053066;28;20086;-69
2022/12/29 03:46:21;;;;;;;0.80;0.68;;;11.30;99.90;;;;;;5035056;28;20082;-69
2022/12/29 03:52:04;;;;;;;1.13;0.60;;;11.30;99.90;;;;;;5012350;28;20488;-69
2022/12/29 03:54:36;;;;;;;1.10;0.70;;;11.30;99.90;;;;;;5051044;28;20037;-69
2022/12/29 03:57:11;;;;;;;0.60;0.50;;;11.20;99.90;;;;;;5053029;28;20021;-69
2022/12/29 03:59:40;;;;;;;2.75;0.40;;;11.30;99.90;;;;;;5034962;28;20065;-69
2022/12/29 04:03:01;;;;;;;1.60;0.57;;;11.30;99.90;;;;;;5034967;28;20048;-69
2022/12/29 04:05:07;;;;;;;0.85;0.50;;;11.30;99.90;;;;;;5038682;28;20063;-69
2022/12/29 04:07:43;;;;;;;1.38;0.80;;;11.20;99.90;;;;;;5052907;28;20045;-69
2022/12/29 04:10:18;;;;;;;1.20;0.52;;;11.20;99.90;;;;;;5034826;28;20029;-69
2022/12/29 04:12:50;;;;;;;2.00;0.63;;;11.20;99.90;;;;;;5035407;28;20021;-69
2022/12/29 04:15:26;;;;;;;0.50;0.30;;;11.20;99.90;;;;;;5053141;28;20021;-69
2022/12/29 04:18:03;;;;;;;3.53;0.60;;;11.20;99.90;;;;;;5052576;28;20037;-69
2022/12/29 04:23:27;;;;;;;1.52;0.75;;;11.30;99.90;;;;;;5053279;28;20048;-69
2022/12/29 04:26:09;;;;;;;1.35;0.60;;;11.30;99.90;;;;;;5052776;28;20060;-69
2022/12/29 04:28:46;;;;;;;2.28;0.57;;;11.40;99.90;;;;;;5034615;28;20045;-69
2022/12/29 04:31:25;;;;;;;0.85;0.40;;;11.40;99.90;;;;;;5038625;28;20032;-69
2022/12/29 04:33:57;;;;;;;0.88;0.22;;;11.40;99.90;;;;;;5056411;28;20017;-69
2022/12/29 04:36:32;;;;;;;2.30;0.45;;;11.40;99.90;;;;;;5038597;28;20025;-69
2022/12/29 04:39:07;;;;;;;2.42;0.50;;;11.40;99.90;;;;;;5056347;28;20029;-69
2022/12/29 04:41:43;;;;;;;0.55;0.50;;;11.50;99.90;;;;;;5039465;28;20020;-69
2022/12/29 04:44:15;;;;;;;1.17;0.50;;;11.50;99.90;;;;;;5056400;28;20052;-69
2022/12/29 04:46:52;;;;;;;1.50;0.77;;;11.50;99.90;;;;;;5038135;28;20029;-69
2022/12/29 04:49:29;;;;;;;0.47;0.45;;;11.40;99.90;;;;;;5038760;28;20029;-69
2022/12/29 04:51:57;;;;;;;0.65;0.43;;;11.40;99.90;;;;;;5056122;28;20039;-69
2022/12/29 04:54:39;;;;;;;0.77;0.30;;;11.30;99.90;;;;;;5037850;28;20059;-69
2022/12/29 04:57:22;;;;;;;1.45;0.52;;;11.30;99.90;;;;;;5038036;28;20025;-69
2022/12/29 04:59:59;;;;;;;2.67;0.60;;;11.30;99.90;;;;;;5038692;28;20024;-69
2022/12/29 05:02:36;;;;;;;0.40;0.40;;;11.30;99.90;;;;;;5037967;28;20021;-69
2022/12/29 05:05:13;;;;;;;3.58;0.85;;;11.30;99.90;;;;;;5056357;28;20048;-69
2022/12/29 05:08:04;;;;;;;0.52;0.40;;;11.30;99.90;;;;;;5036330;28;20491;-69
2022/12/29 05:10:44;;;;;;;1.38;0.90;;;11.40;99.90;;;;;;5037896;28;20107;-69
2022/12/29 05:13:24;;;;;;;1.90;0.60;;;11.40;99.90;;;;;;5055700;28;20048;-69
2022/12/29 05:16:05;;;;;;;2.05;0.75;;;11.40;99.90;;;;;;5037300;28;20041;-69
2022/12/29 05:18:30;;;;;;;2.17;0.88;;;11.30;99.90;;;;;;5055995;28;20087;-70
2022/12/29 05:20:56;;;;;;;6.75;1.23;;;11.20;99.90;;;;;;5037590;28;20025;-70
2022/12/29 05:23:21;;;;;;;1.15;0.88;;;11.10;99.90;;;;;;5038572;28;20111;-71
2022/12/29 05:25:47;;;;;;;1.98;0.90;;;11.10;99.90;;;;;;5037876;28;20040;-71
2022/12/29 05:28:13;;;;;;;7.28;1.17;;;11.00;99.90;;;;;;5037764;28;20032;-71
2022/12/29 05:30:39;;;;;;;1.95;0.80;;;11.00;99.90;;;;;;5037948;28;20079;-71
2022/12/29 05:33:06;;;;;;;1.63;1.20;;;10.90;99.90;;;;;;5037562;28;20025;-71
2022/12/29 05:35:32;;;;;;;2.55;1.33;;;10.90;99.90;;;;;;5055229;28;20017;-71
2022/12/29 05:37:58;;;;;;;2.00;1.05;;;10.90;99.90;;;;;;5037334;28;20025;-71
2022/12/29 05:40:23;;;;;;;0.88;0.70;;;10.90;99.90;;;;;;5036991;28;20074;-71
2022/12/29 05:42:49;;;;;;;5.07;1.55;;;10.90;99.90;;;;;;5055108;28;20025;-71
2022/12/29 05:45:15;;;;;;;2.13;0.95;;;10.90;99.90;;;;;;5055098;28;20475;-71
2022/12/29 05:47:40;;;;;;;2.67;1.00;;;10.90;99.90;;;;;;5036987;28;20025;-71
2022/12/29 05:50:06;;;;;;;1.85;0.80;;;10.80;99.90;;;;;;5037388;28;20029;-70
2022/12/29 05:52:31;;;;;;;1.30;0.95;;;10.80;99.90;;;;;;5037006;28;20021;-70
2022/12/29 05:54:57;;;;;;;4.35;1.23;;;10.80;99.90;;;;;;5054915;28;20025;-71
2022/12/29 05:57:22;;;;;;;5.10;1.00;;;10.80;99.90;;;;;;5038044;28;20071;-71
2022/12/29 05:59:48;;;;;;;3.67;1.27;;;10.90;99.90;;;;;;5038568;28;20128;-71
2022/12/29 06:02:13;;;;;;;2.17;1.25;;;10.90;99.90;;;;;;5037715;28;20029;-71
2022/12/29 06:04:39;;;;;;;2.97;0.85;;;10.90;99.90;;;;;;5054936;28;20492;-71
2022/12/29 06:07:04;;;;;;;1.35;0.90;;;10.90;99.90;;;;;;5037494;28;20025;-71
2022/12/29 06:09:30;;;;;;;3.80;1.60;;;10.90;99.90;;;;;;5055018;28;20032;-71
2022/12/29 06:11:55;;;;;;;1.92;1.42;;;11.00;99.90;;;;;;5036632;28;20084;-71
2022/12/29 06:14:21;;;;;;;5.15;0.93;;;11.00;99.90;;;;;;5037703;28;20476;-71
2022/12/29 06:16:46;;;;;;;4.63;1.58;;;11.00;99.90;;;;;;5037282;28;20082;-70
2022/12/29 06:19:12;;;;;;;3.33;1.08;;;11.00;99.90;;;;;;5036834;28;20032;-71
2022/12/29 06:21:37;;;;;;;1.45;0.85;;;11.10;99.90;;;;;;5054518;28;20100;-71
2022/12/29 06:24:04;;;;;;;2.75;0.98;;;11.10;99.90;;;;;;5036844;28;20021;-71
2022/12/29 06:26:30;;;;;;;2.50;0.50;;;11.20;99.90;;;;;;5054099;28;20036;-71
2022/12/29 06:28:55;;;;;;;2.17;0.80;;;11.20;99.90;;;;;;5036372;28;20017;-71
2022/12/29 06:31:21;;;;;;;1.05;0.70;;;11.20;99.90;;;;;;5054280;28;20024;-71
2022/12/29 06:33:46;;;;;;;2.17;1.70;;;11.30;99.90;;;;;;5036215;28;20021;-71
2022/12/29 06:36:12;;;;;;;1.88;0.73;;;11.30;99.90;;;;;;5054398;28;20064;-71
2022/12/29 06:38:38;;;;;;;1.70;1.05;;;11.30;99.90;;;;;;5054000;28;20017;-70
2022/12/29 06:41:03;;;;;;;0.68;0.63;;;11.30;99.90;;;;;;5037056;28;20025;-70
2022/12/29 06:43:30;;;;;;;1.67;0.60;;;11.30;99.90;;;;;;5054280;28;20025;-70
2022/12/29 06:45:56;;;;;;;3.88;1.00;;;11.30;99.90;;;;;;5037513;28;20017;-70
2022/12/29 06:48:22;;;;;;;0.70;0.55;;;11.40;99.90;;;;;;5035841;28;20044;-70
2022/12/29 06:50:47;;;;;;;3.65;0.98;;;11.30;99.90;;;;;;5036132;28;20123;-70
2022/12/29 06:53:14;;;;;;;2.38;1.10;;;11.30;99.90;;;;;;5035408;28;20039;-70
2022/12/29 06:55:41;;;;;;;1.75;0.65;;;11.30;99.90;;;;;;5036615;28;20031;-71
2022/12/29 06:58:06;;;;;;;1.40;0.70;;;11.30;99.90;;;;;;5035743;28;20082;-71
2022/12/29 07:00:32;;;;;;;1.80;0.75;;;11.30;99.90;;;;;;5053697;28;20095;-71
2022/12/29 07:03:00;;;;;;;1.02;0.70;;;11.30;99.90;;;;;;5053719;28;20104;-71
2022/12/29 07:05:27;;;;;;;0.95;0.80;;;11.30;99.90;;;;;;5035810;28;20025;-71
2022/12/29 07:07:54;;;;;;;2.63;0.80;;;11.30;99.90;;;;;;5035522;28;20033;-71
2022/12/29 07:10:19;;;;;;;1.55;0.70;;;11.30;99.90;;;;;;5035874;28;20025;-71
2022/12/29 07:12:45;;;;;;;3.60;0.80;;;11.30;99.90;;;;;;5036482;28;20039;-71
2022/12/29 07:15:10;;;;;;;2.65;1.00;;;11.20;99.90;;;;;;5035980;28;20021;-71
2022/12/29 07:17:36;;;;;;;4.35;0.90;;;11.20;99.90;;;;;;5035431;28;20055;-70
2022/12/29 07:20:01;;;;;;;1.00;0.80;;;11.20;99.90;;;;;;5035561;28;20040;-70
2022/12/29 07:22:27;;;;;;;4.32;0.93;;;11.20;99.90;;;;;;5036110;28;20040;-70
2022/12/29 07:24:52;;;;;;;6.10;1.33;;;11.20;99.90;;;;;;5035812;28;20025;-70
2022/12/29 07:27:18;;;;;;;2.20;1.00;;;11.20;99.90;;;;;;5035303;28;20021;-70
2022/12/29 07:29:43;;;;;;;4.13;0.98;;;11.20;99.90;;;;;;5035590;28;20017;-69
2022/12/29 07:32:09;;;;;;;1.02;0.73;;;11.20;99.90;;;;;;5035372;28;20029;-69
2022/12/29 07:34:34;;;;;;;3.45;0.82;;;11.20;99.90;;;;;;5036547;28;20017;-69
2022/12/29 07:37:00;;;;;;;1.42;1.00;;;11.30;99.90;;;;;;5035251;28;20048;-69
2022/12/29 07:39:25;;;;;;;1.10;1.00;;;11.30;99.90;;;;;;5035283;28;20116;-69
2022/12/29 07:41:51;;;;;;;2.28;0.80;;;11.20;99.90;;;;;;5035616;28;20036;-69
2022/12/29 07:44:16;;;;;;;2.45;1.20;;;11.10;99.90;;;;;;5035368;28;20028;-69
2022/12/29 07:46:42;;;;;;;2.08;0.90;;;11.10;99.90;;;;;;5035508;28;20025;-69
2022/12/29 07:49:08;;;;;;;4.55;1.13;;;11.10;99.90;;;;;;5035397;28;20017;-69
2022/12/29 07:51:33;;;;;;;3.20;1.27;;;11.10;99.90;;;;;;5035572;28;20025;-69
2022/12/29 07:54:00;;;;;;;2.42;0.90;;;11.10;99.90;;;;;;5052912;28;20100;-69
2022/12/29 07:56:26;;;;;;;1.55;0.73;;;11.00;99.90;;;;;;5035107;28;20032;-69
2022/12/29 07:58:51;;;;;;;5.95;0.93;;;11.00;99.90;;;;;;5035202;28;20017;-69
2022/12/29 08:01:17;;;;;;;0.82;0.80;;;11.00;99.90;;;;;;5053391;28;20043;-69
2022/12/29 08:03:43;;;;;;;2.40;0.52;;;11.10;99.90;;;;;;5037919;28;20025;-69
2022/12/29 08:06:11;;;;;;;2.35;0.80;;;11.10;99.90;;;;;;5057001;28;20133;-69
2022/12/29 08:08:38;;;;;;;1.30;0.90;;;11.20;99.90;;;;;;5057180;28;20048;-69
2022/12/29 08:11:04;;;;;;;1.45;0.90;;;11.20;99.90;;;;;;5057031;28;20017;-69
2022/12/29 08:13:29;;;;;;;1.63;0.80;;;11.30;99.90;;;;;;5039720;28;20507;-69
2022/12/29 08:16:19;;;;;;;1.35;0.88;;;11.30;99.90;;;;;;5038950;28;20029;-69
2022/12/29 08:18:45;;;;;;;1.80;0.90;;;11.40;99.90;;;;;;5040739;28;20041;-69
2022/12/29 08:21:11;;;;;;;3.70;0.90;;;11.50;99.90;;;;;;5038940;28;20025;-69
2022/12/29 08:23:36;;;;;;;2.10;0.65;;;11.50;99.90;;;;;;5056665;28;20123;-68
2022/12/29 08:26:05;;;;;;;2.33;1.25;;;11.40;99.90;;;;;;5039349;28;20032;-68
2022/12/29 08:28:32;;;;;;;4.28;1.08;;;11.40;99.90;;;;;;5038607;28;20479;-69
2022/12/29 08:30:59;;;;;;;2.25;0.98;;;11.40;99.90;;;;;;5038587;28;20108;-68
2022/12/29 08:33:26;;;;;;;2.13;1.02;;;11.30;99.90;;;;;;5038515;28;20021;-68
2022/12/29 08:35:51;;;;;;;5.13;1.25;;;11.20;99.90;;;;;;5038599;28;20580;-68
2022/12/29 08:38:17;;;;;;;2.50;0.90;;;11.20;99.90;;;;;;5039672;28;20061;-68
2022/12/29 08:40:43;;;;;;;3.50;1.27;;;11.00;99.90;;;;;;5039263;28;20024;-68
2022/12/29 08:43:09;;;;;;;2.38;1.23;;;10.90;99.90;;;;;;5039766;28;20032;-68
2022/12/29 08:45:34;;;;;;;6.70;1.60;;;10.80;99.90;;;;;;5038855;28;20044;-67
2022/12/29 08:48:00;;;;;;;4.10;1.40;;;10.80;99.90;;;;;;5038632;28;20089;-68
2022/12/29 08:50:25;;;;;;;1.90;1.15;;;10.80;99.90;;;;;;5038740;28;20021;-68
2022/12/29 08:52:51;;;;;;;3.30;1.27;;;10.80;99.90;;;;;;5056071;28;20025;-68
2022/12/29 08:55:16;;;;;;;6.53;1.52;;;10.80;99.90;;;;;;5038751;28;20051;-68
2022/12/29 08:57:42;;;;;;;1.70;1.10;;;10.80;99.90;;;;;;5038646;28;20029;-68
2022/12/29 09:00:08;;;;;;;3.40;1.30;;;10.80;99.90;;;;;;5056051;28;20107;-68
2022/12/29 09:02:34;;;;;;;3.15;1.10;;;10.90;99.90;;;;;;5038278;28;20029;-68
2022/12/29 09:05:00;;;;;;;3.17;1.30;;;10.90;99.90;;;;;;5038103;28;20036;-68
2022/12/29 09:07:26;;;;;;;5.10;1.20;;;10.90;99.90;;;;;;5037738;28;20029;-68
2022/12/29 09:09:52;;;;;;;2.75;0.68;;;10.90;99.90;;;;;;5038345;28;20028;-68
2022/12/29 09:12:17;;;;;;;3.08;1.20;;;10.90;99.90;;;;;;5055827;28;20021;-68
2022/12/29 09:14:44;;;;;;;1.20;0.80;;;10.90;99.90;;;;;;5037132;28;20117;-68
2022/12/29 09:19:54;;;;;;;1.90;0.70;;;10.90;99.90;;;;;;5055629;28;20032;-67
2022/12/29 09:22:20;;;;;;;5.15;0.70;;;10.80;99.90;;;;;;5055551;28;20029;-68
2022/12/29 09:24:45;;;;;;;0.70;0.50;;;10.80;99.90;;;;;;5055370;28;20035;-69
2022/12/29 09:27:11;;;;;;;1.63;0.60;;;10.80;99.90;;;;;;5037531;28;20025;-68
2022/12/29 09:29:36;;;;;;;2.15;0.50;;;10.80;99.90;;;;;;5055699;28;20017;-68
2022/12/29 09:32:02;;;;;;;2.10;0.50;;;10.80;99.90;;;;;;5037556;28;20567;-68
2022/12/29 09:34:28;;;;;;;1.83;0.55;;;10.90;99.90;;;;;;5055437;28;20032;-68
2022/12/29 09:36:54;;;;;;;2.20;0.60;;;10.90;99.90;;;;;;5037685;28;20488;-68
2022/12/29 09:39:19;;;;;;;0.95;0.68;;;11.00;99.90;;;;;;5055490;28;20035;-68
2022/12/29 09:41:51;;;;;;;4.03;0.57;;;10.90;99.90;;;;;;5055557;28;20033;-68
2022/12/29 09:44:34;;;;;;;2.58;0.82;;;11.00;99.90;;;;;;5055516;28;20033;-68
2022/12/29 09:47:00;;;;;;;2.83;0.70;;;11.00;99.90;;;;;;5037314;28;20087;-68
2022/12/29 09:49:33;;;;;;;1.40;0.60;;;11.00;99.90;;;;;;5037512;28;20055;-68
2022/12/29 09:52:21;;;;;;;0.52;0.40;;;11.10;99.90;;;;;;5055143;28;20078;-68
2022/12/29 09:55:45;;;;;;;1.48;0.68;;;11.10;99.90;;;;;;5025056;28;20053;-68
2022/12/29 09:58:19;;;;;;;5.88;0.90;;;11.10;99.90;;;;;;4992622;28;20034;-68
2022/12/29 10:00:51;;;;;;;2.63;0.77;;;11.10;99.90;;;;;;4977883;28;20030;-69
2022/12/29 10:03:19;;;;;;;1.00;0.60;;;11.10;99.90;;;;;;4977493;28;20040;-68
2022/12/29 10:05:57;;;;;;;1.55;0.57;;;11.00;99.90;;;;;;4977255;28;20031;-68
2022/12/29 10:09:03;;;;;;;6.03;2.78;;;11.00;99.90;;;;;;4977069;28;20034;-68
2022/12/29 10:12:02;;;;;;;2.60;1.23;;;10.80;99.90;;;;;;4977058;28;20027;-68
2022/12/29 10:14:52;;;;;;;3.88;0.70;;;10.80;99.90;;;;;;4993384;28;20022;-68
2022/12/29 10:17:45;;;;;;;1.80;0.80;;;10.90;99.90;;;;;;4976714;28;20026;-68
2022/12/29 10:20:36;;;;;;;6.15;1.25;;;10.90;99.90;;;;;;4976905;28;20026;-68
2022/12/29 10:23:20;;;;;;;2.42;0.80;;;10.90;99.90;;;;;;4977663;28;20046;-69
2022/12/29 10:25:46;;;;;;;1.08;0.90;;;11.10;99.90;;;;;;4976761;28;20022;-68
2022/12/29 10:28:22;;;;;;;4.47;0.90;;;11.30;99.90;;;;;;4996415;28;20124;-68
2022/12/29 10:30:50;;;;;;;1.80;0.80;;;11.40;99.90;;;;;;5054459;28;20086;-69
2022/12/29 10:33:20;;;;;;;3.60;0.93;;;11.40;99.90;;;;;;5036818;28;20021;-68
2022/12/29 10:35:47;;;;;;;1.23;0.82;;;11.50;99.90;;;;;;5054434;28;20100;-68
2022/12/29 10:38:28;;;;;;;2.72;1.00;;;11.50;99.90;;;;;;5036829;28;20029;-69
2022/12/29 10:41:16;;;;;;;1.05;0.80;;;11.50;99.90;;;;;;5054326;28;20025;-68
2022/12/29 10:43:51;;;;;;;1.85;0.80;;;11.50;99.90;;;;;;5037200;28;20072;-68
2022/12/29 10:46:21;;;;;;;3.33;1.13;;;11.50;99.90;;;;;;5036312;28;20032;-68
2022/12/29 10:48:47;;;;;;;2.10;1.10;;;11.40;99.90;;;;;;5036329;28;20021;-68
2022/12/29 10:51:18;;;;;;;5.38;1.02;;;11.50;99.90;;;;;;5036086;28;20068;-68
2022/12/29 10:54:05;;;;;;;1.95;0.73;;;11.40;99.90;;;;;;5054018;28;20029;-68
2022/12/29 10:56:53;;;;;;;1.70;0.80;;;11.40;99.90;;;;;;5036055;28;20480;-69
2022/12/29 10:59:30;;;;;;;8.55;1.35;;;11.40;99.90;;;;;;5028197;28;20083;-68
2022/12/29 11:01:59;;;;;;;4.60;1.63;;;11.50;99.90;;;;;;5035947;28;20035;-68
2022/12/29 11:04:39;;;;;;;0.50;0.40;;;11.40;99.90;;;;;;5035784;28;20024;-68
2022/12/29 11:07:06;;;;;;;0.85;0.43;;;11.40;99.90;;;;;;5035722;28;20025;-68
2022/12/29 11:09:36;;;;;;;2.53;0.70;;;11.20;99.90;;;;;;5035790;28;20025;-68
2022/12/29 11:12:20;;;;;;;3.60;0.65;;;11.10;99.90;;;;;;5035700;28;20040;-68
2022/12/29 11:14:46;;;;;;;1.38;0.57;;;11.10;99.90;;;;;;5036776;28;20108;-68
2022/12/29 11:17:17;;;;;;;3.92;1.05;;;11.10;99.90;;;;;;5053605;28;20097;-68
2022/12/29 11:19:42;;;;;;;1.77;0.70;;;11.10;99.90;;;;;;5126051;22;20453;-68
2022/12/29 11:22:20;;;;;;;0.68;0.43;;;11.10;99.90;;;;;;5073410;28;20100;-68
2022/12/29 11:24:47;;;;;;;0.73;0.50;;;11.10;99.90;;;;;;5056341;28;20021;-68
2022/12/29 11:27:20;;;;;;;4.10;0.70;;;11.20;99.90;;;;;;5056256;28;20036;-68
2022/12/29 11:29:46;;;;;;;1.35;0.95;;;11.20;99.90;;;;;;5055537;28;20016;-68
2022/12/29 11:32:22;;;;;;;0.68;0.38;;;11.20;99.90;;;;;;5074139;28;20047;-68
2022/12/29 11:34:48;;;;;;;3.65;1.35;;;11.20;99.90;;;;;;5073369;28;20099;-68
2022/12/29 11:37:18;;;;;;;6.78;2.60;;;11.20;99.90;;;;;;5055360;28;20036;-68
2022/12/29 11:40:04;;;;;;;2.42;0.80;;;11.30;99.90;;;;;;5073057;28;20024;-68
2022/12/29 11:42:30;;;;;;;2.42;0.80;;;11.20;99.90;;;;;;5056125;28;20028;-68
2022/12/29 11:44:55;;;;;;;3.13;0.80;;;11.20;99.90;;;;;;5055209;28;20025;-68
2022/12/29 11:47:32;;;;;;;7.00;1.90;;;11.20;99.90;;;;;;5055781;28;20074;-68
2022/12/29 11:50:01;;;;;;;10.93;3.58;;;11.10;99.90;;;;;;5073466;28;20064;-68
2022/12/29 11:52:32;;;;;;;1.23;0.70;;;11.20;99.90;;;;;;5055881;28;20107;-68
2022/12/29 11:55:00;;;;;;;4.05;1.10;;;11.20;99.90;;;;;;5055139;28;20111;-68
2022/12/29 11:57:27;;;;;;;0.75;0.40;;;11.30;99.90;;;;;;5072951;28;20029;-68
2022/12/29 11:59:55;;;;;;;1.55;0.70;;;11.30;99.90;;;;;;5055348;28;20024;-68
2022/12/29 12:02:33;;;;;;;2.45;0.70;;;11.30;99.90;;;;;;5055030;28;20055;-68
2022/12/29 12:05:06;;;;;;;2.70;0.90;;;11.30;99.90;;;;;;5072989;28;20033;-68
2022/12/29 12:07:47;;;;;;;2.50;1.15;;;11.30;99.90;;;;;;5055717;28;20082;-68
2022/12/29 12:10:38;;;;;;;0.82;0.47;;;11.20;99.90;;;;;;5054916;28;20120;-68
2022/12/29 12:13:22;;;;;;;1.75;0.80;;;11.20;99.90;;;;;;5073061;28;20048;-68
2022/12/29 12:15:55;;;;;;;0.68;0.50;;;11.20;99.90;;;;;;5073077;28;20028;-68
2022/12/29 12:18:29;;;;;;;3.08;0.73;;;11.30;99.90;;;;;;5072720;28;20033;-68
2022/12/29 12:21:00;;;;;;;2.83;0.80;;;11.40;99.90;;;;;;5054887;28;20052;-67
2022/12/29 12:23:44;;;;;;;3.95;1.35;;;11.40;99.90;;;;;;5073077;28;20100;-68
2022/12/29 12:26:54;;;;;;;3.30;0.98;;;11.50;99.90;;;;;;5055948;28;20052;-68
2022/12/29 12:29:37;;;;;;;3.28;0.93;;;11.50;99.90;;;;;;4975155;28;20069;-68
2022/12/29 12:32:20;;;;;;;4.13;1.23;;;11.60;99.90;;;;;;4991225;28;20034;-68
2022/12/29 12:34:47;;;;;;;1.25;0.43;;;11.60;99.90;;;;;;4975050;28;20081;-68
2022/12/29 12:37:50;;;;;;;0.88;0.40;;;11.60;99.90;;;;;;4975130;28;20170;-68
2022/12/29 12:40:27;;;;;;;0.50;0.40;;;11.60;99.90;;;;;;4991275;28;20066;-68
2022/12/29 12:43:25;;;;;;;6.88;1.08;;;11.60;99.90;;;;;;4975088;28;20466;-68
2022/12/29 12:46:18;;;;;;;2.00;0.50;;;11.60;99.90;;;;;;4991671;28;20050;-68
2022/12/29 12:49:15;;;;;;;6.93;0.70;;;11.60;99.90;;;;;;4975358;28;20041;-68
2022/12/29 12:52:07;;;;;;;5.45;0.60;;;11.70;99.90;;;;;;4995475;28;20031;-68
2022/12/29 12:55:01;;;;;;;3.00;0.70;;;11.80;99.90;;;;;;4984835;28;20046;-68
2022/12/29 12:57:44;;;;;;;4.57;0.98;;;11.90;99.90;;;;;;4978578;28;20034;-68
2022/12/29 13:00:18;;;;;;;7.57;1.75;;;12.00;99.90;;;;;;4978939;28;20433;-68
2022/12/29 13:03:10;;;;;;;7.90;1.85;;;12.10;99.90;;;;;;4978644;28;20030;-68
2022/12/29 13:06:17;;;;;;;3.95;0.60;;;12.20;99.90;;;;;;5046407;28;20063;-68
2022/12/29 13:09:09;;;;;;;2.00;0.63;;;12.20;99.90;;;;;;5075966;28;20036;-68
2022/12/29 13:11:37;;;;;;;3.83;0.60;;;12.10;99.90;;;;;;5029098;28;20047;-68
2022/12/29 13:14:19;;;;;;;4.65;0.80;;;12.10;99.90;;;;;;5076408;28;20066;-68
2022/12/29 13:17:00;;;;;;;2.30;0.73;;;12.10;99.90;;;;;;5057914;28;20078;-68
2022/12/29 13:19:32;;;;;;;5.03;0.93;;;12.00;99.90;;;;;;5057723;28;20064;-68
2022/12/29 13:22:30;;;;;;;3.63;0.47;;;12.00;99.90;;;;;;5076115;28;20025;-68
2022/12/29 13:25:22;;;;;;;3.03;0.77;;;11.90;99.90;;;;;;5075899;28;20039;-69
2022/12/29 13:28:09;;;;;;;;;;;11.90;99.90;;;;;;5075661;28;20107;-69
2022/12/29 13:30:57;;;;;;;3.30;0.70;;;11.90;99.90;;;;;;5075713;28;19900;-68
2022/12/29 13:33:37;;;;;;;5.07;1.02;;;11.80;99.90;;;;;;5075905;28;20063;-69
2022/12/29 13:36:12;;;;;;;5.78;1.33;;;11.80;99.90;;;;;;5058427;28;20059;-68
2022/12/29 13:38:43;;;;;;;5.82;1.02;;;11.90;99.90;;;;;;5058350;28;20032;-68
2022/12/29 13:41:13;;;;;;;2.97;0.55;;;11.80;99.90;;;;;;5057464;28;20033;-69
2022/12/29 13:43:42;;;;;;;6.20;1.17;;;11.80;99.90;;;;;;5057935;28;20115;-68
2022/12/29 13:46:12;;;;;;;5.95;2.28;;;11.80;99.90;;;;;;5057700;28;20025;-69
2022/12/29 13:49:04;;;;;;;1.67;0.70;;;11.90;99.90;;;;;;5058241;28;20059;-68
2022/12/29 13:51:31;;;;;;;3.75;0.70;;;11.80;99.90;;;;;;5057346;28;20013;-68
2022/12/29 13:54:17;;;;;;;4.00;0.90;;;11.80;99.90;;;;;;5057582;28;20020;-68
2022/12/29 13:57:06;;;;;;;6.70;1.25;;;11.80;99.90;;;;;;5075435;28;20021;-69
2022/12/29 13:59:43;;;;;;;3.30;1.02;;;11.80;99.90;;;;;;5075382;28;20043;-69
2022/12/29 14:02:31;;;;;;;3.72;0.90;;;11.80;99.90;;;;;;5057740;28;20024;-69
2022/12/29 14:05:03;;;;;;;6.65;0.95;;;11.90;99.90;;;;;;5075024;28;20027;-69
2022/12/29 14:07:36;;;;;;;3.65;1.17;;;11.90;99.90;;;;;;5056961;28;20052;-69
2022/12/29 14:10:02;;;;;;;9.02;1.45;;;11.90;99.90;;;;;;5075576;28;20028;-69
2022/12/29 14:12:46;;;;;;;6.78;1.50;;;12.00;99.90;;;;;;5057388;28;20020;-68